Etusivu
METAR-TAF:

METAR-TAF

Lentoasemat :

Kalmarin lentoasema

Kalmar, Ruotsi

Leveyspiiri: 56-44N, Pituuspiiri: 016-18E, korkeus merenpinnasta: 16 m

Tämänhetkinen sää

Tämä raportti tehtiin 22 minuuttia sitten, kello 13.20 UTC
Tuuli 9 kn etelästä/kaakosta
Lämpötila 19°C
Kosteus 34%
Ilmanpaine 1029 hPa
Näkyvyys 10 km tai enemmän
ei pilviä alle 1500 m:ssä eikä cumulonimbus-pilviä

METAR: ESMQ 201320Z 16009KT CAVOK 19/03 Q1029

Aika: 15:42 (13:42 UTC)

Sääennuste

Tämä raportti tehtiin 2 tuntia ja 12 minuuttia sitten, kello 11.30 UTC
Ennuste voimassa 20. päivästä klo 12 UTC - 20. päivään klo 21 UTC
Tuuli 8 kn etelästä
Näkyvyys 10 km tai enemmän
ei pilviä alle 1500 m:ssä eikä cumulonimbus-pilviä

TAF: ESMQ 201130Z 2012/2021 17008KT CAVOK

Säähavainnot ja -ennusteet yli 4000 lentoasemalta (METAR- ja TAF-raportit).

Käytössä olevat sääasemat on merkitty karttaan keltaisilla ja punaisilla pisteillä.

Aseta hiiri pisteen päälle nähdäksesi sääaseman nimen.

Klikkaa sitten nähdäksesi säähavainnot ja -ennusteet.

Kartan vaihtaminen: klikkaa mustalla rastilla varustettuja vihreitä pisteitä, niin voit zoomata sisään; viivalla varustettua vihreää pistettä, niin voit zoomata ulos tai vihreitä nuolia, niin pääset viereisille kartoille.


METAR-TAF: